Laurinburg, North Carolina
Current Conditions -  °F | °C
As of 4:52 AM on Sunday 26 Oct 2014 (Local Time) from KMEB Reporting Station
Clear Clear  
Wind Chill: 42°   Ceiling: Unl
Heat Index: 45°   Visibility: 10mi
Dew Point: 43°   Wind: 6mph
Humidity: 93%   Direction: 260°W
Pressure: 29.87"   Gusts: NA
Location:  34.77°N, 79.46°W
Report Text: KMEB 260852Z AUTO 26005KT 10SM CLR 07/06 A2987 RMK AO2 SLP115 T00720061 56008 $
Loading
Personal Weather Stations






























Interactive Weather Map
Tropical Storm Tracking
New forecast layout! Learn more

10-Day Weather Forecast

Advertisements
Track Severe Weather on mobile